createdAt,value
2022-09-24T00:00:43.904Z, 39.25
2022-09-24T00:01:43.992Z, 39.27
2022-09-24T00:02:44.037Z, 39.24
2022-09-24T00:03:44.020Z, 39.23
2022-09-24T00:04:44.063Z, 39.24
2022-09-24T00:05:44.098Z, 39.26
2022-09-24T00:06:44.126Z, 39.27
2022-09-24T00:07:44.191Z, 39.26
2022-09-24T00:08:44.180Z, 39.21
2022-09-24T00:09:44.247Z, 38.61
2022-09-24T00:10:44.278Z, 38.65
2022-09-24T00:11:44.301Z, 38.66
2022-09-24T00:12:44.380Z, 38.69
2022-09-24T00:13:44.372Z, 38.69
2022-09-24T00:14:44.363Z, 38.69
2022-09-24T00:15:44.481Z, 38.71
2022-09-24T00:16:44.504Z, 38.72
2022-09-24T00:17:44.532Z, 38.74
2022-09-24T00:18:44.543Z, 38.73
2022-09-24T00:19:44.640Z, 38.71
2022-09-24T00:20:44.655Z, 38.72
2022-09-24T00:21:44.644Z, 38.73
2022-09-24T00:22:44.724Z, 38.70
2022-09-24T00:23:44.763Z, 38.70
2022-09-24T00:24:44.746Z, 38.74
2022-09-24T00:25:44.861Z, 38.71
2022-09-24T00:26:44.829Z, 38.71
2022-09-24T00:27:44.869Z, 38.73
2022-09-24T00:28:44.854Z, 38.74
2022-09-24T00:29:44.868Z, 38.73
2022-09-24T00:30:44.964Z, 38.75
2022-09-24T00:31:44.983Z, 38.75
2022-09-24T00:32:44.985Z, 38.76
2022-09-24T00:33:45.009Z, 38.78
2022-09-24T00:34:45.040Z, 38.79
2022-09-24T00:35:45.084Z, 38.78
2022-09-24T00:36:45.089Z, 38.79
2022-09-24T00:37:45.127Z, 38.78
2022-09-24T00:38:45.170Z, 38.80
2022-09-24T00:39:45.262Z, 38.77
2022-09-24T00:40:45.326Z, 38.78
2022-09-24T00:41:45.357Z, 38.79
2022-09-24T00:42:45.375Z, 38.78
2022-09-24T00:43:45.408Z, 38.78
2022-09-24T00:44:45.418Z, 38.79
2022-09-24T00:45:45.411Z, 38.78
2022-09-24T00:46:45.707Z, 38.77
2022-09-24T00:47:45.510Z, 38.81
2022-09-24T00:48:45.519Z, 38.80
2022-09-24T00:49:45.540Z, 38.80
2022-09-24T00:50:45.594Z, 38.80
2022-09-24T00:51:45.613Z, 38.79
2022-09-24T00:52:45.612Z, 38.78
2022-09-24T00:53:45.640Z, 38.78
2022-09-24T00:54:45.678Z, 38.77
2022-09-24T00:55:45.736Z, 38.77
2022-09-24T00:56:45.760Z, 38.80
2022-09-24T00:57:45.793Z, 38.79
2022-09-24T00:58:45.816Z, 38.80
2022-09-24T00:59:45.851Z, 38.82
2022-09-24T01:00:46.044Z, 38.80
2022-09-24T01:01:46.020Z, 38.79
2022-09-24T01:02:45.952Z, 38.80
2022-09-24T01:03:46.025Z, 38.78
2022-09-24T01:04:46.039Z, 38.80
2022-09-24T01:05:46.148Z, 38.80
2022-09-24T01:06:46.127Z, 38.79
2022-09-24T01:07:46.221Z, 38.79
2022-09-24T01:08:46.235Z, 38.78
2022-09-24T01:09:46.225Z, 38.78
2022-09-24T01:10:46.254Z, 38.80
2022-09-24T01:11:46.360Z, 38.80
2022-09-24T01:12:46.335Z, 38.79
2022-09-24T01:13:46.365Z, 38.80
2022-09-24T01:14:46.459Z, 38.79
2022-09-24T01:15:46.525Z, 38.81
2022-09-24T01:16:46.461Z, 38.81
2022-09-24T01:17:46.510Z, 38.81
2022-09-24T01:18:46.537Z, 38.79
2022-09-24T01:19:46.522Z, 38.80
2022-09-24T01:20:46.564Z, 38.74
2022-09-24T01:21:46.637Z, 38.78
2022-09-24T01:22:46.638Z, 38.78
2022-09-24T01:23:49.073Z, 38.76
2022-09-24T01:24:46.692Z, 38.76
2022-09-24T01:25:46.722Z, 38.79
2022-09-24T01:26:46.773Z, 38.78
2022-09-24T01:27:46.855Z, 38.79
2022-09-24T01:28:46.899Z, 38.82
2022-09-24T01:29:46.898Z, 38.78
2022-09-24T01:30:46.894Z, 38.80
2022-09-24T01:31:47.174Z, 38.79
2022-09-24T01:32:46.974Z, 38.78
2022-09-24T01:33:47.001Z, 38.79
2022-09-24T01:34:47.039Z, 38.77
2022-09-24T01:35:47.082Z, 38.76
2022-09-24T01:36:47.111Z, 38.81
2022-09-24T01:37:47.141Z, 38.77
2022-09-24T01:38:47.220Z, 38.77
2022-09-24T01:39:47.217Z, 38.77
2022-09-24T01:40:47.378Z, 38.76
2022-09-24T01:41:47.255Z, 38.77
2022-09-24T01:42:47.292Z, 38.79
2022-09-24T01:43:47.326Z, 38.77
2022-09-24T01:44:47.414Z, 38.77
2022-09-24T01:45:47.388Z, 38.78
2022-09-24T01:46:47.501Z, 38.75
2022-09-24T01:47:47.471Z, 38.77
2022-09-24T01:48:47.502Z, 38.76
2022-09-24T01:49:47.593Z, 38.74
2022-09-24T01:50:47.582Z, 38.87
2022-09-24T01:51:47.602Z, 38.86
2022-09-24T01:52:47.621Z, 38.87
2022-09-24T01:53:47.685Z, 38.90
2022-09-24T01:54:47.690Z, 38.89
2022-09-24T01:55:47.728Z, 38.89
2022-09-24T01:56:47.771Z, 38.92
2022-09-24T01:57:47.861Z, 38.91
2022-09-24T01:58:47.837Z, 38.92
2022-09-24T01:59:47.874Z, 38.93
2022-09-24T02:00:47.939Z, 38.94
2022-09-24T02:01:47.963Z, 38.93
2022-09-24T02:02:47.961Z, 38.92
2022-09-24T02:03:48.046Z, 38.91
2022-09-24T02:04:48.026Z, 38.93
2022-09-24T02:05:48.059Z, 38.93
2022-09-24T02:06:48.095Z, 38.93
2022-09-24T02:07:48.106Z, 38.94
2022-09-24T02:08:48.146Z, 38.93
2022-09-24T02:09:48.177Z, 38.93
2022-09-24T02:10:48.364Z, 38.95
2022-09-24T02:11:48.333Z, 38.95
2022-09-24T02:12:48.311Z, 38.93
2022-09-24T02:13:48.346Z, 38.95
2022-09-24T02:14:48.429Z, 38.96
2022-09-24T02:15:48.472Z, 38.93
2022-09-24T02:16:48.480Z, 38.94
2022-09-24T02:17:48.463Z, 38.93
2022-09-24T02:18:48.499Z, 38.93
2022-09-24T02:19:48.605Z, 38.95
2022-09-24T02:20:48.594Z, 38.94
2022-09-24T02:21:48.593Z, 38.93
2022-09-24T02:22:48.630Z, 38.96
2022-09-24T02:23:48.639Z, 38.95
2022-09-24T02:24:48.741Z, 38.93
2022-09-24T02:25:48.773Z, 38.95
2022-09-24T02:26:48.807Z, 38.94
2022-09-24T02:27:48.830Z, 38.93
2022-09-24T02:28:48.877Z, 38.96
2022-09-24T02:29:48.859Z, 38.95
2022-09-24T02:30:48.952Z, 38.98
2022-09-24T02:31:48.943Z, 39.01
2022-09-24T02:32:49.019Z, 39.01
2022-09-24T02:33:49.036Z, 39.03
2022-09-24T02:34:49.030Z, 39.01
2022-09-24T02:35:49.062Z, 39.01
2022-09-24T02:36:49.083Z, 39.03
2022-09-24T02:37:49.137Z, 39.02
2022-09-24T02:38:49.136Z, 39.00
2022-09-24T02:39:49.244Z, 39.01
2022-09-24T02:40:49.320Z, 39.00
2022-09-24T02:41:49.407Z, 38.98
2022-09-24T02:42:49.310Z, 39.02
2022-09-24T02:43:49.333Z, 39.02
2022-09-24T02:44:49.388Z, 39.01
2022-09-24T02:45:49.402Z, 39.02
2022-09-24T02:46:49.494Z, 39.00
2022-09-24T02:47:49.462Z, 38.99
2022-09-24T02:48:49.505Z, 39.01
2022-09-24T02:49:49.541Z, 39.00
2022-09-24T02:50:49.557Z, 39.01
2022-09-24T02:51:49.591Z, 39.01
2022-09-24T02:52:49.621Z, 38.98
2022-09-24T02:53:49.711Z, 39.00
2022-09-24T02:54:49.687Z, 39.00
2022-09-24T02:55:49.710Z, 38.99
2022-09-24T02:56:49.746Z, 38.99
2022-09-24T02:57:49.852Z, 38.99
2022-09-24T02:58:49.903Z, 38.99
2022-09-24T02:59:49.874Z, 38.98
2022-09-24T03:00:49.910Z, 38.99
2022-09-24T03:01:50.098Z, 38.97
2022-09-24T03:02:50.091Z, 38.99
2022-09-24T03:03:50.120Z, 39.00
2022-09-24T03:04:50.079Z, 39.01
2022-09-24T03:05:50.107Z, 39.03
2022-09-24T03:06:50.122Z, 38.99
2022-09-24T03:07:50.129Z, 38.98
2022-09-24T03:08:50.172Z, 39.01
2022-09-24T03:09:50.194Z, 39.02
2022-09-24T03:10:50.244Z, 39.00
2022-09-24T03:11:50.267Z, 39.02
2022-09-24T03:12:50.306Z, 39.03
2022-09-24T03:13:50.355Z, 39.02
2022-09-24T03:14:50.440Z, 39.04
2022-09-24T03:15:50.549Z, 39.02
2022-09-24T03:16:50.437Z, 39.04
2022-09-24T03:17:50.521Z, 39.04
2022-09-24T03:18:50.510Z, 38.99
2022-09-24T03:19:50.559Z, 39.01
2022-09-24T03:20:50.618Z, 39.02
2022-09-24T03:21:50.627Z, 39.00
2022-09-24T03:22:50.729Z, 39.01
2022-09-24T03:23:50.705Z, 39.01
2022-09-24T03:24:50.704Z, 38.99
2022-09-24T03:25:50.754Z, 38.99
2022-09-24T03:26:50.857Z, 38.97
2022-09-24T03:27:50.844Z, 38.95
2022-09-24T03:28:50.874Z, 38.98
2022-09-24T03:29:50.949Z, 38.96
2022-09-24T03:30:50.945Z, 38.94
2022-09-24T03:31:51.038Z, 38.97
2022-09-24T03:32:51.025Z, 38.95
2022-09-24T03:33:51.123Z, 38.95
2022-09-24T03:34:51.132Z, 38.96
2022-09-24T03:35:51.180Z, 38.94
2022-09-24T03:36:51.226Z, 38.94
2022-09-24T03:37:51.198Z, 38.96
2022-09-24T03:38:51.209Z, 38.96
2022-09-24T03:39:51.234Z, 38.96
2022-09-24T03:40:51.406Z, 38.96
2022-09-24T03:41:51.314Z, 38.17
2022-09-24T03:42:51.356Z, 38.21
2022-09-24T03:43:51.412Z, 38.26
2022-09-24T03:44:51.475Z, 38.25
2022-09-24T03:45:51.538Z, 38.28
2022-09-24T03:46:51.621Z, 38.26
2022-09-24T03:47:51.528Z, 38.24
2022-09-24T03:48:51.570Z, 38.27
2022-09-24T03:49:51.674Z, 38.27
2022-09-24T03:50:51.678Z, 38.29
2022-09-24T03:51:51.667Z, 38.30
2022-09-24T03:52:51.728Z, 38.28
2022-09-24T03:53:51.747Z, 38.26
2022-09-24T03:54:51.760Z, 38.27
2022-09-24T03:55:51.853Z, 38.26
2022-09-24T03:56:51.880Z, 38.26
2022-09-24T03:57:51.860Z, 38.29
2022-09-24T03:58:51.910Z, 38.27
2022-09-24T03:59:52.028Z, 38.27
2022-09-24T04:00:52.003Z, 38.31
2022-09-24T04:01:52.200Z, 38.31
2022-09-24T04:02:52.092Z, 38.32
2022-09-24T04:03:52.062Z, 38.32
2022-09-24T04:04:52.101Z, 38.30
2022-09-24T04:05:52.215Z, 38.31
2022-09-24T04:06:52.261Z, 38.29
2022-09-24T04:07:52.235Z, 38.27
2022-09-24T04:08:52.268Z, 38.29
2022-09-24T04:09:52.325Z, 38.31
2022-09-24T04:10:52.320Z, 38.29
2022-09-24T04:11:52.342Z, 38.29
2022-09-24T04:12:52.399Z, 38.28
2022-09-24T04:13:52.418Z, 38.26
2022-09-24T04:14:52.504Z, 38.27
2022-09-24T04:15:52.568Z, 38.27
2022-09-24T04:16:52.568Z, 38.29
2022-09-24T04:17:52.578Z, 38.32
2022-09-24T04:18:52.563Z, 38.28
2022-09-24T04:19:52.578Z, 38.30
2022-09-24T04:20:52.639Z, 38.32
2022-09-24T04:21:52.689Z, 38.29
2022-09-24T04:22:52.693Z, 38.31
2022-09-24T04:23:52.789Z, 38.29
2022-09-24T04:24:52.757Z, 38.29
2022-09-24T04:25:52.790Z, 38.30
2022-09-24T04:26:52.808Z, 38.28
2022-09-24T04:27:52.833Z, 38.25
2022-09-24T04:28:52.868Z, 38.26
2022-09-24T04:29:52.967Z, 38.27
2022-09-24T04:30:53.083Z, 38.70
2022-09-24T04:31:53.184Z, 38.73
2022-09-24T04:32:53.103Z, 38.73
2022-09-24T04:33:53.082Z, 38.73
2022-09-24T04:34:53.168Z, 38.77
2022-09-24T04:35:53.191Z, 38.76
2022-09-24T04:36:53.173Z, 38.75
2022-09-24T04:37:53.202Z, 38.78
2022-09-24T04:38:53.239Z, 38.76
2022-09-24T04:39:53.283Z, 38.75
2022-09-24T04:40:53.436Z, 38.76
2022-09-24T04:41:53.334Z, 38.76
2022-09-24T04:42:53.413Z, 38.78
2022-09-24T04:43:53.460Z, 38.78
2022-09-24T04:44:56.115Z, 38.77
2022-09-24T04:45:53.514Z, 38.79
2022-09-24T04:46:53.591Z, 38.82
2022-09-24T04:47:53.533Z, 38.82
2022-09-24T04:48:53.543Z, 38.84
2022-09-24T04:49:53.644Z, 38.85
2022-09-24T04:50:53.625Z, 38.82
2022-09-24T04:51:53.734Z, 38.85
2022-09-24T04:52:53.745Z, 38.84
2022-09-24T04:53:53.769Z, 38.83
2022-09-24T04:54:53.784Z, 38.83
2022-09-24T04:55:53.798Z, 38.79
2022-09-24T04:56:53.833Z, 38.78
2022-09-24T04:57:53.847Z, 38.79
2022-09-24T04:58:53.901Z, 38.78
2022-09-24T04:59:53.952Z, 38.77
2022-09-24T05:00:53.967Z, 38.79
2022-09-24T05:01:54.155Z, 38.79
2022-09-24T05:02:54.168Z, 38.82
2022-09-24T05:03:54.056Z, 39.03
2022-09-24T05:04:54.099Z, 39.80
2022-09-24T05:05:54.174Z, 36.37
2022-09-24T05:06:54.158Z, 34.49
2022-09-24T05:07:54.161Z, 35.98
2022-09-24T05:08:54.200Z, 37.72
2022-09-24T05:09:54.311Z, 35.19
2022-09-24T05:10:54.289Z, 34.82
2022-09-24T05:11:54.375Z, 34.87
2022-09-24T05:12:54.340Z, 34.84
2022-09-24T05:13:54.363Z, 34.78
2022-09-24T05:14:54.389Z, 34.79
2022-09-24T05:15:54.478Z, 34.79
2022-09-24T05:16:54.452Z, 34.74
2022-09-24T05:17:54.487Z, 34.76
2022-09-24T05:18:54.511Z, 34.75
2022-09-24T05:19:54.629Z, 34.74
2022-09-24T05:20:54.598Z, 34.73
2022-09-24T05:21:54.628Z, 34.73
2022-09-24T05:22:54.672Z, 34.75
2022-09-24T05:23:54.706Z, 34.77
2022-09-24T05:24:54.744Z, 34.76
2022-09-24T05:25:54.811Z, 34.76
2022-09-24T05:26:54.771Z, 34.76
2022-09-24T05:27:54.908Z, 34.76
2022-09-24T05:28:54.866Z, 34.79
2022-09-24T05:29:54.905Z, 34.76
2022-09-24T05:30:55.047Z, 34.77
2022-09-24T05:31:55.032Z, 34.77
2022-09-24T05:32:55.027Z, 34.76
2022-09-24T05:33:55.032Z, 34.80
2022-09-24T05:34:55.138Z, 34.79
2022-09-24T05:35:55.122Z, 34.77
2022-09-24T05:36:55.202Z, 34.76
2022-09-24T05:37:55.235Z, 34.77
2022-09-24T05:38:55.219Z, 34.77
2022-09-24T05:39:55.230Z, 34.76
2022-09-24T05:40:55.335Z, 34.76
2022-09-24T05:41:55.278Z, 34.77
2022-09-24T05:42:55.333Z, 34.79
2022-09-24T05:43:55.372Z, 34.77
2022-09-24T05:44:55.438Z, 34.78
2022-09-24T05:45:55.521Z, 34.77
2022-09-24T05:46:55.544Z, 34.76
2022-09-24T05:47:55.537Z, 34.75
2022-09-24T05:48:55.563Z, 34.78
2022-09-24T05:49:55.652Z, 31.63
2022-09-24T05:50:55.673Z, 31.61
2022-09-24T05:51:55.735Z, 31.60
2022-09-24T05:52:55.728Z, 31.58
2022-09-24T05:53:55.769Z, 31.59
2022-09-24T05:54:55.787Z, 31.63
2022-09-24T05:55:55.812Z, 31.59
2022-09-24T05:56:55.843Z, 31.61
2022-09-24T05:57:55.866Z, 31.62
2022-09-24T05:58:55.903Z, 31.59
2022-09-24T05:59:55.939Z, 31.60
2022-09-24T06:00:55.985Z, 31.58
2022-09-24T06:01:56.082Z, 31.56
2022-09-24T06:02:56.075Z, 31.60
2022-09-24T06:03:56.068Z, 31.58
2022-09-24T06:04:56.100Z, 31.57
2022-09-24T06:05:56.167Z, 31.58
2022-09-24T06:06:56.180Z, 31.58
2022-09-24T06:07:56.205Z, 31.60
2022-09-24T06:08:56.303Z, 31.57
2022-09-24T06:09:56.295Z, 31.57
2022-09-24T06:10:56.294Z, 31.58
2022-09-24T06:11:56.347Z, 31.65
2022-09-24T06:12:56.386Z, 31.71
2022-09-24T06:13:56.425Z, 31.76
2022-09-24T06:14:56.408Z, 31.87
2022-09-24T06:15:56.513Z, 31.94
2022-09-24T06:16:56.535Z, 32.00
2022-09-24T06:17:56.590Z, 31.96
2022-09-24T06:18:56.575Z, 31.85
2022-09-24T06:19:56.561Z, 31.80
2022-09-24T06:20:56.632Z, 31.70
2022-09-24T06:21:56.679Z, 31.68
2022-09-24T06:22:56.763Z, 31.68
2022-09-24T06:23:56.742Z, 31.68
2022-09-24T06:24:56.745Z, 31.65
2022-09-24T06:25:56.761Z, 31.63
2022-09-24T06:26:56.792Z, 31.63
2022-09-24T06:27:56.913Z, 31.66
2022-09-24T06:29:02.143Z, 31.64
2022-09-24T06:29:56.983Z, 31.63
2022-09-24T06:30:57.085Z, 31.62
2022-09-24T06:31:56.987Z, 31.65
2022-09-24T06:32:57.062Z, 31.66
2022-09-24T06:33:57.089Z, 31.64
2022-09-24T06:34:59.245Z, 31.60
2022-09-24T06:35:57.143Z, 31.60
2022-09-24T06:36:57.164Z, 31.56
2022-09-24T06:37:57.155Z, 31.55
2022-09-24T06:38:57.190Z, 31.58
2022-09-24T06:39:57.236Z, 31.57
2022-09-24T06:40:57.328Z, 31.59
2022-09-24T06:41:57.279Z, 31.59
2022-09-24T06:42:57.329Z, 31.58
2022-09-24T06:43:57.366Z, 31.59
2022-09-24T06:44:57.474Z, 31.58
2022-09-24T06:45:57.491Z, 31.58
2022-09-24T06:46:57.533Z, 31.60
2022-09-24T06:47:57.517Z, 31.59
2022-09-24T06:48:57.560Z, 31.57
2022-09-24T06:49:57.593Z, 31.59
2022-09-24T06:50:57.629Z, 31.59
2022-09-24T06:51:57.730Z, 31.59
2022-09-24T06:52:57.737Z, 31.60
2022-09-24T06:53:57.741Z, 31.58
2022-09-24T06:54:57.772Z, 31.59
2022-09-24T06:55:57.808Z, 31.62
2022-09-24T06:56:57.846Z, 31.61
2022-09-24T06:57:57.852Z, 31.60
2022-09-24T06:58:57.876Z, 31.62
2022-09-24T06:59:57.933Z, 31.60
2022-09-24T07:00:58.073Z, 31.57
2022-09-24T07:01:58.039Z, 31.58
2022-09-24T07:02:58.013Z, 31.57
2022-09-24T07:03:58.093Z, 31.56
2022-09-24T07:04:58.127Z, 31.56
2022-09-24T07:05:58.107Z, 31.54
2022-09-24T07:06:58.119Z, 31.56
2022-09-24T07:07:58.180Z, 31.57
2022-09-24T07:08:58.269Z, 31.58
2022-09-24T07:09:58.248Z, 31.61
2022-09-24T07:10:58.245Z, 31.60
2022-09-24T07:11:58.282Z, 31.56
2022-09-24T07:12:58.339Z, 31.58
2022-09-24T07:13:58.358Z, 31.54
2022-09-24T07:14:58.395Z, 31.54
2022-09-24T07:15:58.563Z, 31.55
2022-09-24T07:16:58.509Z, 31.53
2022-09-24T07:17:58.526Z, 31.53
2022-09-24T07:18:58.539Z, 31.53
2022-09-24T07:19:58.581Z, 31.52
2022-09-24T07:20:58.777Z, 31.54
2022-09-24T07:21:58.668Z, 31.52
2022-09-24T07:22:58.670Z, 31.51
2022-09-24T07:23:58.907Z, 31.48
2022-09-24T07:24:58.807Z, 31.49
2022-09-24T07:25:58.789Z, 31.50
2022-09-24T07:26:58.888Z, 31.50
2022-09-24T07:27:58.902Z, 31.52
2022-09-24T07:28:58.881Z, 31.50
2022-09-24T07:29:58.914Z, 31.50
2022-09-24T07:30:59.084Z, 31.51
2022-09-24T07:31:58.981Z, 31.50
2022-09-24T07:32:59.062Z, 31.50
2022-09-24T07:33:59.061Z, 31.48
2022-09-24T07:34:59.070Z, 31.47
2022-09-24T07:35:59.153Z, 31.50
2022-09-24T07:36:59.148Z, 31.51
2022-09-24T07:37:59.174Z, 31.51
2022-09-24T07:38:59.197Z, 31.53
2022-09-24T07:39:59.223Z, 31.52
2022-09-24T07:40:59.405Z, 31.51
2022-09-24T07:41:59.348Z, 31.55
2022-09-24T07:42:59.384Z, 31.58
2022-09-24T07:43:59.386Z, 31.59
2022-09-24T07:44:59.460Z, 31.59
2022-09-24T07:45:59.445Z, 31.56
2022-09-24T07:46:59.584Z, 31.55
2022-09-24T07:47:59.539Z, 31.56
2022-09-24T07:48:59.551Z, 31.53
2022-09-24T07:49:59.568Z, 31.56
2022-09-24T07:50:59.571Z, 31.61
2022-09-24T07:51:59.701Z, 31.63
2022-09-24T07:52:59.682Z, 31.71
2022-09-24T07:53:59.698Z, 31.74
2022-09-24T07:54:59.777Z, 31.72
2022-09-24T07:55:59.812Z, 31.72
2022-09-24T07:56:59.840Z, 31.70
2022-09-24T07:57:59.814Z, 31.67
2022-09-24T07:58:59.858Z, 31.69
2022-09-24T07:59:59.865Z, 31.68
2022-09-24T08:00:59.959Z, 30.16
2022-09-24T08:02:00.016Z, 30.14
2022-09-24T08:02:59.963Z, 30.15
2022-09-24T08:04:00.179Z, 30.16
2022-09-24T08:05:00.111Z, 30.18
2022-09-24T08:06:00.090Z, 30.16
2022-09-24T08:07:00.082Z, 30.14
2022-09-24T08:08:00.180Z, 30.17
2022-09-24T08:09:00.221Z, 30.16
2022-09-24T08:10:00.220Z, 30.16
2022-09-24T08:11:00.253Z, 30.17
2022-09-24T08:12:00.332Z, 30.13
2022-09-24T08:13:00.381Z, 30.16
2022-09-24T08:14:00.363Z, 30.16
2022-09-24T08:15:00.366Z, 30.16
2022-09-24T08:16:00.504Z, 30.15
2022-09-24T08:17:00.571Z, 30.15
2022-09-24T08:18:00.564Z, 30.14
2022-09-24T08:19:00.545Z, 30.16
2022-09-24T08:20:00.640Z, 30.15
2022-09-24T08:21:00.602Z, 30.12
2022-09-24T08:22:00.626Z, 30.14
2022-09-24T08:23:00.645Z, 30.13
2022-09-24T08:24:00.751Z, 30.14
2022-09-24T08:25:00.802Z, 30.17
2022-09-24T08:26:00.790Z, 30.16
2022-09-24T08:27:00.974Z, 30.14
2022-09-24T08:28:00.844Z, 30.15
2022-09-24T08:29:00.893Z, 30.14
2022-09-24T08:30:00.959Z, 30.15
2022-09-24T08:31:01.072Z, 30.18
2022-09-24T08:32:01.024Z, 30.15
2022-09-24T08:33:01.081Z, 30.10
2022-09-24T08:34:01.114Z, 30.11
2022-09-24T08:35:01.098Z, 30.08
2022-09-24T08:36:01.100Z, 30.13
2022-09-24T08:37:01.187Z, 30.14
2022-09-24T08:38:01.171Z, 30.11
2022-09-24T08:39:01.185Z, 30.10
2022-09-24T08:40:01.248Z, 30.13
2022-09-24T08:41:01.326Z, 30.11
2022-09-24T08:42:01.318Z, 30.10
2022-09-24T08:43:05.496Z, 30.08
2022-09-24T08:44:01.549Z, 30.08
2022-09-24T08:45:01.410Z, 30.10
2022-09-24T08:46:01.511Z, 30.06
2022-09-24T08:47:01.612Z, 30.08
2022-09-24T08:48:01.514Z, 30.08
2022-09-24T08:49:01.575Z, 30.09
2022-09-24T08:50:01.679Z, 30.08
2022-09-24T08:51:01.671Z, 30.09
2022-09-24T08:52:01.703Z, 30.07
2022-09-24T08:53:01.700Z, 30.12
2022-09-24T08:54:01.871Z, 30.16
2022-09-24T08:55:01.774Z, 30.12
2022-09-24T08:56:01.801Z, 30.10
2022-09-24T08:57:01.896Z, 30.13
2022-09-24T08:58:01.885Z, 30.10
2022-09-24T08:59:01.893Z, 30.11
2022-09-24T09:00:01.913Z, 30.12
2022-09-24T09:01:01.956Z, 30.11
2022-09-24T09:02:02.216Z, 30.12
2022-09-24T09:03:02.089Z, 30.12
2022-09-24T09:04:02.190Z, 30.11
2022-09-24T09:05:02.099Z, 30.15
2022-09-24T09:06:02.124Z, 30.14
2022-09-24T09:07:02.188Z, 30.13
2022-09-24T09:08:02.187Z, 30.11
2022-09-24T09:09:07.188Z, 30.11
2022-09-24T09:10:02.277Z, 30.11
2022-09-24T09:11:02.294Z, 30.10
2022-09-24T09:12:02.346Z, 30.06
2022-09-24T09:13:02.375Z, 30.07
2022-09-24T09:14:02.398Z, 30.07
2022-09-24T09:15:02.445Z, 30.09
2022-09-24T09:16:02.507Z, 30.08
2022-09-24T09:17:02.489Z, 30.09
2022-09-24T09:18:02.525Z, 30.07
2022-09-24T09:19:02.549Z, 30.05
2022-09-24T09:20:02.605Z, 30.06
2022-09-24T09:21:02.621Z, 30.07
2022-09-24T09:22:02.724Z, 30.08
2022-09-24T09:23:02.694Z, 30.11
2022-09-24T09:24:02.732Z, 30.08
2022-09-24T09:25:04.285Z, 30.07
2022-09-24T09:26:02.859Z, 30.05
2022-09-24T09:27:02.909Z, 30.02
2022-09-24T09:28:02.938Z, 30.07
2022-09-24T09:29:02.957Z, 30.08
2022-09-24T09:30:02.930Z, 30.07
2022-09-24T09:31:03.009Z, 30.07
2022-09-24T09:32:02.993Z, 30.03
2022-09-24T09:33:03.049Z, 30.03
2022-09-24T09:34:03.131Z, 30.04
2022-09-24T09:35:03.140Z, 30.03
2022-09-24T09:36:03.131Z, 30.02
2022-09-24T09:37:03.156Z, 30.05
2022-09-24T09:38:03.183Z, 30.04
2022-09-24T09:39:03.205Z, 30.03
2022-09-24T09:40:03.240Z, 30.04
2022-09-24T09:41:03.354Z, 30.02
2022-09-24T09:42:03.320Z, 30.02
2022-09-24T09:43:03.426Z, 30.03
2022-09-24T09:44:03.468Z, 30.02
2022-09-24T09:45:03.450Z, 30.00
2022-09-24T09:46:03.548Z, 30.00
2022-09-24T09:47:03.482Z, 29.97
2022-09-24T09:48:03.546Z, 29.93
2022-09-24T09:49:03.593Z, 29.92
2022-09-24T09:50:03.779Z, 29.94
2022-09-24T09:51:03.785Z, 29.98
2022-09-24T09:52:03.780Z, 30.01
2022-09-24T09:53:03.780Z, 29.99
2022-09-24T09:54:03.712Z, 30.04
2022-09-24T09:55:03.783Z, 30.01
2022-09-24T09:56:03.792Z, 30.01
2022-09-24T09:57:03.875Z, 30.00
2022-09-24T09:58:03.896Z, 29.95
2022-09-24T09:59:03.894Z, 29.97
2022-09-24T10:00:03.922Z, 29.96
2022-09-24T10:01:03.961Z, 29.97
2022-09-24T10:02:04.122Z, 29.94
2022-09-24T10:03:04.277Z, 29.98
2022-09-24T10:04:04.057Z, 29.99
2022-09-24T10:05:04.092Z, 29.99
2022-09-24T10:06:04.130Z, 29.99
2022-09-24T10:07:04.242Z, 29.98
2022-09-24T10:08:04.208Z, 30.00
2022-09-24T10:09:04.215Z, 29.99
2022-09-24T10:10:04.260Z, 29.94
2022-09-24T10:11:04.315Z, 29.97
2022-09-24T10:12:04.371Z, 29.95
2022-09-24T10:13:04.384Z, 29.97
2022-09-24T10:14:04.639Z, 29.96
2022-09-24T10:15:04.428Z, 29.97
2022-09-24T10:16:04.573Z, 29.95
2022-09-24T10:17:04.550Z, 29.96
2022-09-24T10:18:04.565Z, 29.96
2022-09-24T10:19:04.627Z, 29.96
2022-09-24T10:20:04.660Z, 29.97
2022-09-24T10:21:04.705Z, 29.95
2022-09-24T10:22:04.672Z, 29.96
2022-09-24T10:23:04.695Z, 29.95
2022-09-24T10:24:04.891Z, 29.94
2022-09-24T10:25:04.814Z, 29.94
2022-09-24T10:26:04.811Z, 29.95
2022-09-24T10:27:04.913Z, 29.94
2022-09-24T10:28:04.895Z, 29.93
2022-09-24T10:29:04.936Z, 29.95
2022-09-24T10:30:05.118Z, 29.95
2022-09-24T10:31:05.044Z, 29.96
2022-09-24T10:32:05.018Z, 29.98
2022-09-24T10:33:05.051Z, 29.97
2022-09-24T10:34:05.271Z, 29.93
2022-09-24T10:35:05.141Z, 29.92
2022-09-24T10:36:05.175Z, 29.92
2022-09-24T10:37:10.291Z, 29.96
2022-09-24T10:38:05.229Z, 29.97
2022-09-24T10:39:05.298Z, 29.96
2022-09-24T10:40:05.326Z, 29.96
2022-09-24T10:41:05.310Z, 29.95
2022-09-24T10:42:05.345Z, 29.92
2022-09-24T10:43:05.401Z, 29.93
2022-09-24T10:44:05.538Z, 29.88
2022-09-24T10:45:05.527Z, 29.86
2022-09-24T10:46:05.552Z, 29.85
2022-09-24T10:47:05.685Z, 29.82
2022-09-24T10:48:05.636Z, 29.79
2022-09-24T10:49:05.682Z, 29.82
2022-09-24T10:50:05.676Z, 29.82
2022-09-24T10:51:05.671Z, 29.81
2022-09-24T10:52:05.665Z, 29.80
2022-09-24T10:53:05.685Z, 29.77
2022-09-24T10:54:05.915Z, 29.78
2022-09-24T10:55:05.786Z, 29.82
2022-09-24T10:56:05.815Z, 29.83
2022-09-24T10:57:05.851Z, 29.84
2022-09-24T10:58:05.876Z, 29.83
2022-09-24T10:59:05.940Z, 29.79
2022-09-24T11:00:05.921Z, 29.80
2022-09-24T11:01:05.954Z, 29.79
2022-09-24T11:02:06.081Z, 29.80
2022-09-24T11:03:06.207Z, 29.75
2022-09-24T11:04:06.161Z, 29.76
2022-09-24T11:05:06.175Z, 29.78
2022-09-24T11:06:06.214Z, 29.77
2022-09-24T11:07:06.186Z, 29.75
2022-09-24T11:08:06.196Z, 29.76
2022-09-24T11:09:06.279Z, 29.75
2022-09-24T11:10:06.247Z, 29.75
2022-09-24T11:11:06.308Z, 29.78
2022-09-24T11:12:06.372Z, 29.76
2022-09-24T11:13:06.360Z, 29.77
2022-09-24T11:14:06.388Z, 29.77
2022-09-24T11:15:06.423Z, 29.75
2022-09-24T11:16:06.525Z, 29.76
2022-09-24T11:17:06.534Z, 29.75
2022-09-24T11:18:06.508Z, 29.73
2022-09-24T11:19:06.549Z, 29.73
2022-09-24T11:20:06.573Z, 29.72
2022-09-24T11:21:06.666Z, 29.71
2022-09-24T11:22:06.665Z, 29.72
2022-09-24T11:23:06.749Z, 29.76
2022-09-24T11:24:06.758Z, 29.79
2022-09-24T11:25:06.778Z, 29.82
2022-09-24T11:26:06.861Z, 29.85
2022-09-24T11:27:06.919Z, 29.79
2022-09-24T11:28:06.908Z, 29.82
2022-09-24T11:29:06.927Z, 29.82
2022-09-24T11:30:06.951Z, 29.80
2022-09-24T11:31:07.136Z, 29.80
2022-09-24T11:32:07.040Z, 29.80
2022-09-24T11:33:07.075Z, 29.80
2022-09-24T11:34:07.229Z, 29.81
2022-09-24T11:35:07.136Z, 29.78
2022-09-24T11:36:07.134Z, 29.79
2022-09-24T11:37:07.161Z, 29.80
2022-09-24T11:38:07.248Z, 29.80
2022-09-24T11:39:07.282Z, 29.81
2022-09-24T11:40:07.336Z, 29.80
2022-09-24T11:41:07.391Z, 29.80
2022-09-24T11:42:07.353Z, 29.78
2022-09-24T11:43:07.387Z, 29.78
2022-09-24T11:44:07.461Z, 29.78
2022-09-24T11:45:07.456Z, 29.79
2022-09-24T11:46:07.557Z, 29.74
2022-09-24T11:47:07.506Z, 29.74
2022-09-24T11:48:07.562Z, 29.78
2022-09-24T11:49:07.602Z, 29.77
2022-09-24T11:50:07.649Z, 29.77
2022-09-24T11:51:07.687Z, 29.78
2022-09-24T11:52:07.715Z, 29.79
2022-09-24T11:53:07.795Z, 29.80
2022-09-24T11:54:07.888Z, 29.79
2022-09-24T11:55:07.809Z, 29.79
2022-09-24T11:56:12.889Z, 29.78
2022-09-24T11:57:07.872Z, 29.78
2022-09-24T11:58:07.953Z, 29.74
2022-09-24T11:59:07.931Z, 29.75
2022-09-24T12:00:08.022Z, 29.70
2022-09-24T12:01:08.073Z, 29.63
2022-09-24T12:02:08.102Z, 29.57
2022-09-24T12:03:08.102Z, 29.55
2022-09-24T12:04:08.234Z, 26.56
2022-09-24T12:05:08.230Z, 26.41
2022-09-24T12:06:08.181Z, 26.43
2022-09-24T12:07:08.192Z, 26.80
2022-09-24T12:08:08.242Z, 26.43
2022-09-24T12:09:08.248Z, 26.51
2022-09-24T12:10:08.287Z, 26.54
2022-09-24T12:11:08.333Z, 26.44
2022-09-24T12:12:08.421Z, 26.40
2022-09-24T12:13:08.442Z, 26.48
2022-09-24T12:14:08.550Z, 26.61
2022-09-24T12:15:08.489Z, 26.70
2022-09-24T12:16:08.527Z, 26.70
2022-09-24T12:17:08.578Z, 26.76
2022-09-24T12:18:08.623Z, 26.78
2022-09-24T12:19:08.596Z, 26.74
2022-09-24T12:20:08.686Z, 27.15
2022-09-24T12:21:08.681Z, 26.49
2022-09-24T12:22:08.786Z, 26.42
2022-09-24T12:23:08.816Z, 27.05
2022-09-24T12:24:08.833Z, 28.86
2022-09-24T12:25:08.851Z, 33.38
2022-09-24T12:26:08.835Z, 33.74
2022-09-24T12:27:08.934Z, 26.25
2022-09-24T12:28:08.921Z, 36.96
2022-09-24T12:29:08.952Z, 33.44